sensor_id;sensor_type;location;lat;lon;timestamp;pressure;altitude;pressure_sealevel;temperature;humidity
46456;BME280;64052;47.466;9.094;2023-02-12T00:00:20;97568.41;;;3.98;50.80
46456;BME280;64052;47.466;9.094;2023-02-12T00:05:22;97554.66;;;3.64;50.89
46456;BME280;64052;47.466;9.094;2023-02-12T00:10:24;97559.00;;;3.63;51.22
46456;BME280;64052;47.466;9.094;2023-02-12T00:15:25;97545.22;;;3.60;51.47
46456;BME280;64052;47.466;9.094;2023-02-12T00:20:27;97553.84;;;3.62;51.51
46456;BME280;64052;47.466;9.094;2023-02-12T00:25:28;97556.63;;;3.56;51.04
46456;BME280;64052;47.466;9.094;2023-02-12T00:30:30;97548.53;;;3.35;50.62
46456;BME280;64052;47.466;9.094;2023-02-12T00:35:33;97555.63;;;3.30;51.65
46456;BME280;64052;47.466;9.094;2023-02-12T00:40:34;97560.06;;;3.26;51.23
46456;BME280;64052;47.466;9.094;2023-02-12T00:45:36;97563.56;;;3.25;51.87
46456;BME280;64052;47.466;9.094;2023-02-12T00:50:38;97565.25;;;3.28;51.90
46456;BME280;64052;47.466;9.094;2023-02-12T00:55:40;97553.78;;;3.33;52.23
46456;BME280;64052;47.466;9.094;2023-02-12T01:00:42;97560.50;;;3.42;51.68
46456;BME280;64052;47.466;9.094;2023-02-12T01:05:44;97560.50;;;3.42;51.55
46456;BME280;64052;47.466;9.094;2023-02-12T01:10:54;97548.22;;;3.46;51.64
46456;BME280;64052;47.466;9.094;2023-02-12T01:16:25;97538.94;;;3.35;51.48
46456;BME280;64052;47.466;9.094;2023-02-12T01:21:29;97540.66;;;3.36;52.32
46456;BME280;64052;47.466;9.094;2023-02-12T01:26:32;97548.59;;;3.32;51.83
46456;BME280;64052;47.466;9.094;2023-02-12T01:31:36;97545.09;;;3.33;51.35
46456;BME280;64052;47.466;9.094;2023-02-12T01:36:38;97551.53;;;3.21;50.99
46456;BME280;64052;47.466;9.094;2023-02-12T01:41:42;97550.94;;;3.11;51.31
46456;BME280;64052;47.466;9.094;2023-02-12T01:46:56;97543.03;;;3.14;51.54
46456;BME280;64052;47.466;9.094;2023-02-12T01:52:25;97536.91;;;3.15;51.93
46456;BME280;64052;47.466;9.094;2023-02-12T01:57:31;97532.38;;;3.22;51.30
46456;BME280;64052;47.466;9.094;2023-02-12T02:02:33;97521.84;;;3.25;51.44
46456;BME280;64052;47.466;9.094;2023-02-12T02:07:35;97518.78;;;3.12;51.68
46456;BME280;64052;47.466;9.094;2023-02-12T02:12:38;97516.09;;;3.14;51.72
46456;BME280;64052;47.466;9.094;2023-02-12T02:17:50;97530.50;;;2.95;51.70
46456;BME280;64052;47.466;9.094;2023-02-12T02:34:04;97530.78;;;2.86;51.81
46456;BME280;64052;47.466;9.094;2023-02-12T02:39:25;97522.97;;;2.86;51.57
46456;BME280;64052;47.466;9.094;2023-02-12T02:44:35;97523.63;;;2.93;51.54
46456;BME280;64052;47.466;9.094;2023-02-12T02:49:43;97518.75;;;2.80;51.26
46456;BME280;64052;47.466;9.094;2023-02-12T02:54:53;97515.16;;;2.85;51.10
46456;BME280;64052;47.466;9.094;2023-02-12T03:05:23;97518.47;;;2.58;51.93
46456;BME280;64052;47.466;9.094;2023-02-12T03:10:31;97517.16;;;2.42;52.18
46456;BME280;64052;47.466;9.094;2023-02-12T03:15:38;97519.88;;;2.37;52.19
46456;BME280;64052;47.466;9.094;2023-02-12T03:20:46;97529.97;;;2.49;52.20
46456;BME280;64052;47.466;9.094;2023-02-12T03:25:54;97529.38;;;2.39;52.36
46456;BME280;64052;47.466;9.094;2023-02-12T03:36:21;97513.13;;;2.63;51.80
46456;BME280;64052;47.466;9.094;2023-02-12T03:41:30;97531.75;;;2.49;52.01
46456;BME280;64052;47.466;9.094;2023-02-12T03:51:51;97517.97;;;2.44;52.21
46456;BME280;64052;47.466;9.094;2023-02-12T03:56:56;97523.19;;;2.44;52.36
46456;BME280;64052;47.466;9.094;2023-02-12T04:02:01;97507.16;;;2.59;52.45
46456;BME280;64052;47.466;9.094;2023-02-12T04:07:03;97515.56;;;2.36;51.30
46456;BME280;64052;47.466;9.094;2023-02-12T04:33:15;97534.91;;;2.25;52.26
46456;BME280;64052;47.466;9.094;2023-02-12T04:38:22;97552.31;;;2.23;52.43
46456;BME280;64052;47.466;9.094;2023-02-12T04:43:31;97551.56;;;2.18;52.30
46456;BME280;64052;47.466;9.094;2023-02-12T04:48:51;97551.75;;;2.10;52.36
46456;BME280;64052;47.466;9.094;2023-02-12T04:53:53;97562.00;;;2.17;51.72
46456;BME280;64052;47.466;9.094;2023-02-12T04:58:55;97562.72;;;2.23;50.92
46456;BME280;64052;47.466;9.094;2023-02-12T05:03:56;97567.22;;;2.17;51.09
46456;BME280;64052;47.466;9.094;2023-02-12T05:08:58;97559.78;;;2.01;50.80
46456;BME280;64052;47.466;9.094;2023-02-12T05:13:59;97564.09;;;2.02;51.22
46456;BME280;64052;47.466;9.094;2023-02-12T05:19:01;97559.16;;;1.90;51.75
46456;BME280;64052;47.466;9.094;2023-02-12T05:24:03;97563.75;;;1.78;51.77
46456;BME280;64052;47.466;9.094;2023-02-12T05:29:05;97572.53;;;1.74;51.88
46456;BME280;64052;47.466;9.094;2023-02-12T05:34:09;97563.94;;;1.71;52.14
46456;BME280;64052;47.466;9.094;2023-02-12T05:39:11;97554.34;;;1.73;52.61
46456;BME280;64052;47.466;9.094;2023-02-12T05:44:12;97555.78;;;1.85;52.27
46456;BME280;64052;47.466;9.094;2023-02-12T05:49:14;97559.25;;;1.87;52.26
46456;BME280;64052;47.466;9.094;2023-02-12T05:54:15;97556.50;;;1.91;51.79
46456;BME280;64052;47.466;9.094;2023-02-12T05:59:20;97541.69;;;1.95;52.27
46456;BME280;64052;47.466;9.094;2023-02-12T06:04:25;97544.38;;;1.92;52.16
46456;BME280;64052;47.466;9.094;2023-02-12T06:09:27;97538.34;;;1.90;51.48
46456;BME280;64052;47.466;9.094;2023-02-12T06:14:29;97527.25;;;1.83;51.66
46456;BME280;64052;47.466;9.094;2023-02-12T06:19:32;97529.88;;;1.81;51.58
46456;BME280;64052;47.466;9.094;2023-02-12T06:24:34;97529.75;;;1.86;51.57
46456;BME280;64052;47.466;9.094;2023-02-12T06:29:35;97536.59;;;1.90;52.01
46456;BME280;64052;47.466;9.094;2023-02-12T06:34:37;97533.00;;;1.96;51.94
46456;BME280;64052;47.466;9.094;2023-02-12T06:39:38;97532.06;;;1.99;51.78
46456;BME280;64052;47.466;9.094;2023-02-12T06:44:40;97535.69;;;1.93;52.03
46456;BME280;64052;47.466;9.094;2023-02-12T06:49:41;97529.19;;;2.11;52.01
46456;BME280;64052;47.466;9.094;2023-02-12T06:54:43;97533.84;;;1.98;52.13
46456;BME280;64052;47.466;9.094;2023-02-12T06:59:44;97539.91;;;1.97;51.62
46456;BME280;64052;47.466;9.094;2023-02-12T07:04:46;97546.84;;;1.98;51.81
46456;BME280;64052;47.466;9.094;2023-02-12T07:09:47;97545.88;;;2.02;51.86
46456;BME280;64052;47.466;9.094;2023-02-12T07:14:49;97545.34;;;1.88;52.10
46456;BME280;64052;47.466;9.094;2023-02-12T07:19:50;97548.59;;;1.98;51.99
46456;BME280;64052;47.466;9.094;2023-02-12T07:24:52;97539.84;;;2.00;52.47
46456;BME280;64052;47.466;9.094;2023-02-12T07:29:53;97545.78;;;2.07;52.68
46456;BME280;64052;47.466;9.094;2023-02-12T07:34:55;97552.41;;;2.19;52.56
46456;BME280;64052;47.466;9.094;2023-02-12T07:39:57;97549.72;;;2.22;52.37
46456;BME280;64052;47.466;9.094;2023-02-12T07:44:59;97552.78;;;2.39;52.43
46456;BME280;64052;47.466;9.094;2023-02-12T07:50:00;97554.16;;;2.55;52.44
46456;BME280;64052;47.466;9.094;2023-02-12T07:55:02;97556.94;;;2.81;52.36
46456;BME280;64052;47.466;9.094;2023-02-12T08:00:04;97552.81;;;3.06;52.25
46456;BME280;64052;47.466;9.094;2023-02-12T08:05:12;97548.34;;;3.41;50.32
46456;BME280;64052;47.466;9.094;2023-02-12T08:10:13;97548.41;;;3.70;51.71
46456;BME280;64052;47.466;9.094;2023-02-12T08:15:18;97545.66;;;4.03;51.39
46456;BME280;64052;47.466;9.094;2023-02-12T08:20:19;97550.34;;;4.20;50.49
46456;BME280;64052;47.466;9.094;2023-02-12T08:25:21;97556.25;;;4.25;50.53
46456;BME280;64052;47.466;9.094;2023-02-12T08:30:22;97548.00;;;4.64;50.01
46456;BME280;64052;47.466;9.094;2023-02-12T08:35:24;97552.69;;;4.80;49.38
46456;BME280;64052;47.466;9.094;2023-02-12T08:40:25;97546.69;;;5.03;49.73
46456;BME280;64052;47.466;9.094;2023-02-12T08:45:27;97540.50;;;5.30;48.90
46456;BME280;64052;47.466;9.094;2023-02-12T08:50:28;97548.34;;;5.54;48.14
46456;BME280;64052;47.466;9.094;2023-02-12T08:55:30;97545.09;;;5.71;47.70
46456;BME280;64052;47.466;9.094;2023-02-12T09:00:31;97536.22;;;5.97;48.06
46456;BME280;64052;47.466;9.094;2023-02-12T09:05:37;97537.91;;;6.22;47.37
46456;BME280;64052;47.466;9.094;2023-02-12T09:10:43;97520.50;;;6.42;46.84
46456;BME280;64052;47.466;9.094;2023-02-12T09:15:45;97514.94;;;6.70;47.05
46456;BME280;64052;47.466;9.094;2023-02-12T09:20:46;97503.59;;;7.11;46.30
46456;BME280;64052;47.466;9.094;2023-02-12T09:25:48;97500.41;;;7.24;46.69
46456;BME280;64052;47.466;9.094;2023-02-12T09:30:49;97498.94;;;7.56;46.09
46456;BME280;64052;47.466;9.094;2023-02-12T09:35:51;97500.41;;;7.81;45.66
46456;BME280;64052;47.466;9.094;2023-02-12T09:46:00;97493.78;;;8.46;46.28
46456;BME280;64052;47.466;9.094;2023-02-12T09:51:07;97496.03;;;8.89;45.90
46456;BME280;64052;47.466;9.094;2023-02-12T09:56:12;97488.31;;;9.20;45.57
46456;BME280;64052;47.466;9.094;2023-02-12T10:01:17;97485.78;;;9.34;45.35
46456;BME280;64052;47.466;9.094;2023-02-12T10:06:27;97489.63;;;9.61;45.40
46456;BME280;64052;47.466;9.094;2023-02-12T10:11:40;97492.34;;;9.91;45.08
46456;BME280;64052;47.466;9.094;2023-02-12T10:27:37;97476.66;;;10.96;42.90
46456;BME280;64052;47.466;9.094;2023-02-12T10:32:42;97470.50;;;11.53;40.53
46456;BME280;64052;47.466;9.094;2023-02-12T10:37:49;97469.22;;;11.88;37.96
46456;BME280;64052;47.466;9.094;2023-02-12T10:42:53;97468.25;;;12.44;34.91
46456;BME280;64052;47.466;9.094;2023-02-12T10:48:07;97461.44;;;13.06;35.44
46456;BME280;64052;47.466;9.094;2023-02-12T10:53:31;97459.16;;;13.89;34.33
46456;BME280;64052;47.466;9.094;2023-02-12T10:58:33;97448.13;;;15.26;32.91
46456;BME280;64052;47.466;9.094;2023-02-12T11:03:34;97440.56;;;16.75;31.11
46456;BME280;64052;47.466;9.094;2023-02-12T11:08:36;97432.59;;;17.37;29.56
46456;BME280;64052;47.466;9.094;2023-02-12T11:14:04;97427.47;;;17.55;29.62
46456;BME280;64052;47.466;9.094;2023-02-12T11:19:10;97420.44;;;17.13;30.84
46456;BME280;64052;47.466;9.094;2023-02-12T11:24:30;97415.84;;;16.94;31.47
46456;BME280;64052;47.466;9.094;2023-02-12T11:29:32;97419.72;;;17.42;30.97
46456;BME280;64052;47.466;9.094;2023-02-12T11:34:34;97411.34;;;18.94;27.94
46456;BME280;64052;47.466;9.094;2023-02-12T11:39:39;97400.88;;;21.29;25.53
46456;BME280;64052;47.466;9.094;2023-02-12T11:44:50;97402.16;;;23.50;22.85
46456;BME280;64052;47.466;9.094;2023-02-12T11:55:18;97395.25;;;24.58;21.44
46456;BME280;64052;47.466;9.094;2023-02-12T12:00:36;97392.56;;;25.56;19.98
46456;BME280;64052;47.466;9.094;2023-02-12T12:05:46;97391.84;;;26.21;19.53
46456;BME280;64052;47.466;9.094;2023-02-12T12:10:57;97391.50;;;26.52;18.81
46456;BME280;64052;47.466;9.094;2023-02-12T12:16:10;97383.31;;;26.46;19.10
46456;BME280;64052;47.466;9.094;2023-02-12T12:21:27;97379.09;;;26.65;18.77
46456;BME280;64052;47.466;9.094;2023-02-12T12:26:33;97374.81;;;26.77;18.98
46456;BME280;64052;47.466;9.094;2023-02-12T12:31:40;97364.25;;;26.54;19.44
46456;BME280;64052;47.466;9.094;2023-02-12T12:48:06;97355.97;;;27.19;19.04
46456;BME280;64052;47.466;9.094;2023-02-12T12:58:58;97340.81;;;26.90;19.44
46456;BME280;64052;47.466;9.094;2023-02-12T13:09:28;97330.19;;;26.88;19.83
46456;BME280;64052;47.466;9.094;2023-02-12T13:14:43;97325.84;;;26.37;20.47
46456;BME280;64052;47.466;9.094;2023-02-12T13:20:09;97333.44;;;25.83;21.05
46456;BME280;64052;47.466;9.094;2023-02-12T13:25:36;97322.38;;;25.56;21.42
46456;BME280;64052;47.466;9.094;2023-02-12T13:30:49;97326.31;;;24.93;22.04
46456;BME280;64052;47.466;9.094;2023-02-12T13:35:56;97325.41;;;24.09;23.17
46456;BME280;64052;47.466;9.094;2023-02-12T13:41:02;97316.91;;;23.42;23.84
46456;BME280;64052;47.466;9.094;2023-02-12T13:46:17;97320.97;;;23.38;23.90
46456;BME280;64052;47.466;9.094;2023-02-12T13:52:31;97323.25;;;22.37;25.10
46456;BME280;64052;47.466;9.094;2023-02-12T13:57:15;97328.41;;;21.72;26.42
46456;BME280;64052;47.466;9.094;2023-02-12T14:07:20;97319.66;;;20.22;28.68
46456;BME280;64052;47.466;9.094;2023-02-12T14:37:54;97313.78;;;18.43;31.99
46456;BME280;64052;47.466;9.094;2023-02-12T14:42:56;97318.41;;;18.31;32.85
46456;BME280;64052;47.466;9.094;2023-02-12T14:47:58;97307.66;;;18.03;33.23
46456;BME280;64052;47.466;9.094;2023-02-12T14:53:07;97307.34;;;18.06;33.58
46456;BME280;64052;47.466;9.094;2023-02-12T14:58:19;97311.28;;;17.72;34.90
46456;BME280;64052;47.466;9.094;2023-02-12T15:03:28;97307.91;;;17.70;35.12
46456;BME280;64052;47.466;9.094;2023-02-12T15:08:44;97311.81;;;17.46;35.93
46456;BME280;64052;47.466;9.094;2023-02-12T15:13:52;97308.38;;;17.05;36.51
46456;BME280;64052;47.466;9.094;2023-02-12T15:19:01;97307.41;;;17.06;36.77
46456;BME280;64052;47.466;9.094;2023-02-12T15:24:06;97305.38;;;16.98;36.58
46456;BME280;64052;47.466;9.094;2023-02-12T15:29:19;97312.41;;;16.68;37.34
46456;BME280;64052;47.466;9.094;2023-02-12T15:34:24;97307.94;;;16.68;37.75
46456;BME280;64052;47.466;9.094;2023-02-12T15:39:39;97302.69;;;16.57;38.02
46456;BME280;64052;47.466;9.094;2023-02-12T15:44:41;97298.31;;;16.25;38.82
46456;BME280;64052;47.466;9.094;2023-02-12T15:49:43;97297.34;;;16.05;39.32
46456;BME280;64052;47.466;9.094;2023-02-12T15:54:45;97293.66;;;15.84;39.57
46456;BME280;64052;47.466;9.094;2023-02-12T15:59:52;97296.13;;;15.76;39.78
46456;BME280;64052;47.466;9.094;2023-02-12T16:04:55;97286.84;;;15.70;40.03
46456;BME280;64052;47.466;9.094;2023-02-12T16:09:57;97289.69;;;15.13;40.92
46456;BME280;64052;47.466;9.094;2023-02-12T16:14:59;97291.59;;;15.11;40.93
46456;BME280;64052;47.466;9.094;2023-02-12T16:25:29;97289.78;;;14.32;42.25
46456;BME280;64052;47.466;9.094;2023-02-12T16:30:41;97301.53;;;13.94;43.55
46456;BME280;64052;47.466;9.094;2023-02-12T16:35:43;97309.03;;;13.64;43.92
46456;BME280;64052;47.466;9.094;2023-02-12T16:46:18;97317.00;;;12.89;45.42
46456;BME280;64052;47.466;9.094;2023-02-12T16:51:29;97319.78;;;12.88;45.51
46456;BME280;64052;47.466;9.094;2023-02-12T16:56:33;97329.84;;;12.70;45.89
46456;BME280;64052;47.466;9.094;2023-02-12T17:01:36;97328.16;;;12.69;46.05
46456;BME280;64052;47.466;9.094;2023-02-12T17:06:37;97338.63;;;12.44;46.54
46456;BME280;64052;47.466;9.094;2023-02-12T17:11:39;97340.50;;;12.03;47.08
46456;BME280;64052;47.466;9.094;2023-02-12T17:16:40;97342.16;;;11.91;47.09
46456;BME280;64052;47.466;9.094;2023-02-12T17:21:43;97346.59;;;11.91;47.85
46456;BME280;64052;47.466;9.094;2023-02-12T17:26:46;97354.03;;;11.99;47.70
46456;BME280;64052;47.466;9.094;2023-02-12T17:31:49;97353.63;;;11.77;48.43
46456;BME280;64052;47.466;9.094;2023-02-12T17:36:51;97355.22;;;11.80;47.81
46456;BME280;64052;47.466;9.094;2023-02-12T17:41:53;97364.97;;;11.52;47.96
46456;BME280;64052;47.466;9.094;2023-02-12T17:46:54;97365.50;;;11.30;47.82
46456;BME280;64052;47.466;9.094;2023-02-12T17:51:56;97372.25;;;10.77;49.61
46456;BME280;64052;47.466;9.094;2023-02-12T17:56:57;97378.69;;;10.88;49.24
46456;BME280;64052;47.466;9.094;2023-02-12T18:01:59;97383.84;;;10.75;49.53
46456;BME280;64052;47.466;9.094;2023-02-12T18:07:02;97379.66;;;10.42;50.42
46456;BME280;64052;47.466;9.094;2023-02-12T18:12:04;97384.22;;;10.23;50.46
46456;BME280;64052;47.466;9.094;2023-02-12T18:17:06;97385.31;;;10.05;50.71
46456;BME280;64052;47.466;9.094;2023-02-12T18:22:07;97388.47;;;9.95;50.33
46456;BME280;64052;47.466;9.094;2023-02-12T18:27:10;97380.09;;;9.73;50.55
46456;BME280;64052;47.466;9.094;2023-02-12T18:32:12;97392.78;;;9.66;50.84
46456;BME280;64052;47.466;9.094;2023-02-12T18:37:13;97384.22;;;9.30;50.48
46456;BME280;64052;47.466;9.094;2023-02-12T18:42:15;97385.16;;;9.29;50.80
46456;BME280;64052;47.466;9.094;2023-02-12T18:47:16;97380.34;;;9.21;51.52
46456;BME280;64052;47.466;9.094;2023-02-12T18:52:23;97381.94;;;9.08;51.28
46456;BME280;64052;47.466;9.094;2023-02-12T18:57:24;97393.13;;;8.95;52.21
46456;BME280;64052;47.466;9.094;2023-02-12T19:02:26;97393.13;;;8.95;52.03
46456;BME280;64052;47.466;9.094;2023-02-12T19:07:28;97387.31;;;8.73;51.92
46456;BME280;64052;47.466;9.094;2023-02-12T19:12:29;97388.63;;;8.64;51.71
46456;BME280;64052;47.466;9.094;2023-02-12T19:17:31;97388.19;;;8.55;52.13
46456;BME280;64052;47.466;9.094;2023-02-12T19:22:34;97391.75;;;8.54;52.20
46456;BME280;64052;47.466;9.094;2023-02-12T19:27:35;97385.84;;;8.49;51.85
46456;BME280;64052;47.466;9.094;2023-02-12T19:32:37;97382.72;;;8.25;52.53
46456;BME280;64052;47.466;9.094;2023-02-12T19:37:39;97385.09;;;8.12;53.11
46456;BME280;64052;47.466;9.094;2023-02-12T19:42:40;97383.78;;;8.21;52.16
46456;BME280;64052;47.466;9.094;2023-02-12T19:47:42;97380.91;;;8.25;51.50
46456;BME280;64052;47.466;9.094;2023-02-12T19:52:43;97390.88;;;7.83;53.38
46456;BME280;64052;47.466;9.094;2023-02-12T19:57:45;97395.31;;;7.83;52.99
46456;BME280;64052;47.466;9.094;2023-02-12T20:02:46;97386.31;;;7.69;53.94
46456;BME280;64052;47.466;9.094;2023-02-12T20:07:48;97393.72;;;7.61;53.56
46456;BME280;64052;47.466;9.094;2023-02-12T20:12:49;97391.25;;;7.58;52.51
46456;BME280;64052;47.466;9.094;2023-02-12T20:17:51;97383.44;;;7.56;52.07
46456;BME280;64052;47.466;9.094;2023-02-12T20:22:52;97395.53;;;7.41;52.72
46456;BME280;64052;47.466;9.094;2023-02-12T20:27:54;97395.09;;;7.31;52.75
46456;BME280;64052;47.466;9.094;2023-02-12T20:32:55;97402.28;;;7.09;54.04
46456;BME280;64052;47.466;9.094;2023-02-12T20:37:57;97399.59;;;7.10;53.82
46456;BME280;64052;47.466;9.094;2023-02-12T20:42:59;97408.44;;;7.08;52.86
46456;BME280;64052;47.466;9.094;2023-02-12T20:48:00;97413.13;;;7.01;53.29
46456;BME280;64052;47.466;9.094;2023-02-12T20:53:02;97411.00;;;7.09;52.87
46456;BME280;64052;47.466;9.094;2023-02-12T20:58:03;97410.69;;;6.96;52.29
46456;BME280;64052;47.466;9.094;2023-02-12T21:03:05;97413.97;;;7.01;53.45
46456;BME280;64052;47.466;9.094;2023-02-12T21:08:06;97415.28;;;6.72;54.18
46456;BME280;64052;47.466;9.094;2023-02-12T21:13:08;97421.78;;;6.63;53.39
46456;BME280;64052;47.466;9.094;2023-02-12T21:18:10;97425.78;;;6.51;53.76
46456;BME280;64052;47.466;9.094;2023-02-12T21:23:11;97425.19;;;6.44;54.31
46456;BME280;64052;47.466;9.094;2023-02-12T21:28:13;97426.19;;;6.42;53.47
46456;BME280;64052;47.466;9.094;2023-02-12T21:33:14;97435.09;;;6.38;53.15
46456;BME280;64052;47.466;9.094;2023-02-12T21:38:16;97431.09;;;6.29;54.15
46456;BME280;64052;47.466;9.094;2023-02-12T21:43:17;97430.81;;;6.35;54.93
46456;BME280;64052;47.466;9.094;2023-02-12T21:48:18;97438.50;;;6.40;54.98
46456;BME280;64052;47.466;9.094;2023-02-12T21:53:20;97441.06;;;6.62;54.58
46456;BME280;64052;47.466;9.094;2023-02-12T21:58:22;97439.22;;;6.64;54.56
46456;BME280;64052;47.466;9.094;2023-02-12T22:03:23;97434.28;;;6.77;54.45
46456;BME280;64052;47.466;9.094;2023-02-12T22:08:25;97447.28;;;6.80;54.29
46456;BME280;64052;47.466;9.094;2023-02-12T22:13:26;97441.47;;;6.53;54.99
46456;BME280;64052;47.466;9.094;2023-02-12T22:18:29;97450.19;;;6.72;54.97
46456;BME280;64052;47.466;9.094;2023-02-12T22:23:31;97447.28;;;6.80;54.95
46456;BME280;64052;47.466;9.094;2023-02-12T22:28:37;97445.22;;;6.87;55.25
46456;BME280;64052;47.466;9.094;2023-02-12T22:33:39;97448.41;;;6.54;56.01
46456;BME280;64052;47.466;9.094;2023-02-12T22:38:41;97457.63;;;6.42;56.68
46456;BME280;64052;47.466;9.094;2023-02-12T22:43:42;97449.09;;;6.78;55.94
46456;BME280;64052;47.466;9.094;2023-02-12T22:48:44;97459.59;;;6.97;55.01
46456;BME280;64052;47.466;9.094;2023-02-12T22:53:46;97453.22;;;7.03;53.96
46456;BME280;64052;47.466;9.094;2023-02-12T22:58:53;97459.69;;;6.96;54.28
46456;BME280;64052;47.466;9.094;2023-02-12T23:03:55;97460.66;;;6.93;54.60
46456;BME280;64052;47.466;9.094;2023-02-12T23:09:00;97458.44;;;6.84;55.18
46456;BME280;64052;47.466;9.094;2023-02-12T23:14:02;97452.38;;;6.83;55.28
46456;BME280;64052;47.466;9.094;2023-02-12T23:19:03;97458.63;;;7.00;55.55
46456;BME280;64052;47.466;9.094;2023-02-12T23:24:05;97467.25;;;7.02;54.60
46456;BME280;64052;47.466;9.094;2023-02-12T23:29:07;97466.53;;;6.79;56.07
46456;BME280;64052;47.466;9.094;2023-02-12T23:34:08;97466.50;;;7.00;54.90
46456;BME280;64052;47.466;9.094;2023-02-12T23:39:11;97468.09;;;7.23;55.09
46456;BME280;64052;47.466;9.094;2023-02-12T23:44:12;97471.69;;;7.21;55.36
46456;BME280;64052;47.466;9.094;2023-02-12T23:49:14;97476.84;;;7.03;55.63
46456;BME280;64052;47.466;9.094;2023-02-12T23:54:15;97478.44;;;6.86;55.49
46456;BME280;64052;47.466;9.094;2023-02-12T23:59:17;97474.94;;;6.67;56.34
